sensor_id;sensor_type;location;lat;lon;timestamp;P1;durP1;ratioP1;P2;durP2;ratioP2
69854;SDS011;57146;48.140;16.304;2023-09-07T00:00:15;5.53;;;2.40;;
69854;SDS011;57146;48.140;16.304;2023-09-07T00:02:43;5.57;;;2.20;;
69854;SDS011;57146;48.140;16.304;2023-09-07T00:05:10;5.57;;;2.00;;
69854;SDS011;57146;48.140;16.304;2023-09-07T00:07:37;7.43;;;2.40;;
69854;SDS011;57146;48.140;16.304;2023-09-07T00:10:04;4.78;;;2.00;;
69854;SDS011;57146;48.140;16.304;2023-09-07T00:12:32;10.90;;;2.30;;
69854;SDS011;57146;48.140;16.304;2023-09-07T00:14:59;5.03;;;1.98;;
69854;SDS011;57146;48.140;16.304;2023-09-07T00:17:26;8.50;;;2.07;;
69854;SDS011;57146;48.140;16.304;2023-09-07T00:19:54;5.63;;;2.47;;
69854;SDS011;57146;48.140;16.304;2023-09-07T00:22:21;6.18;;;1.80;;
69854;SDS011;57146;48.140;16.304;2023-09-07T00:24:48;5.35;;;2.20;;
69854;SDS011;57146;48.140;16.304;2023-09-07T00:27:15;5.07;;;2.30;;
69854;SDS011;57146;48.140;16.304;2023-09-07T00:29:41;7.07;;;2.00;;
69854;SDS011;57146;48.140;16.304;2023-09-07T00:32:08;6.35;;;2.45;;
69854;SDS011;57146;48.140;16.304;2023-09-07T00:34:36;5.43;;;1.90;;
69854;SDS011;57146;48.140;16.304;2023-09-07T00:37:03;7.35;;;2.40;;
69854;SDS011;57146;48.140;16.304;2023-09-07T00:39:30;5.63;;;2.47;;
69854;SDS011;57146;48.140;16.304;2023-09-07T00:41:57;6.63;;;2.23;;
69854;SDS011;57146;48.140;16.304;2023-09-07T00:44:24;5.07;;;2.20;;
69854;SDS011;57146;48.140;16.304;2023-09-07T00:46:51;7.97;;;2.63;;
69854;SDS011;57146;48.140;16.304;2023-09-07T00:49:18;5.40;;;2.40;;
69854;SDS011;57146;48.140;16.304;2023-09-07T00:51:45;4.80;;;2.38;;
69854;SDS011;57146;48.140;16.304;2023-09-07T00:54:12;5.33;;;2.17;;
69854;SDS011;57146;48.140;16.304;2023-09-07T00:56:39;7.82;;;2.58;;
69854;SDS011;57146;48.140;16.304;2023-09-07T00:59:08;6.07;;;2.42;;
69854;SDS011;57146;48.140;16.304;2023-09-07T01:01:35;5.05;;;2.25;;
69854;SDS011;57146;48.140;16.304;2023-09-07T01:04:03;5.53;;;2.25;;
69854;SDS011;57146;48.140;16.304;2023-09-07T01:06:32;6.57;;;2.40;;
69854;SDS011;57146;48.140;16.304;2023-09-07T01:09:10;8.48;;;2.60;;
69854;SDS011;57146;48.140;16.304;2023-09-07T01:11:42;5.15;;;2.38;;
69854;SDS011;57146;48.140;16.304;2023-09-07T01:14:10;5.75;;;2.42;;
69854;SDS011;57146;48.140;16.304;2023-09-07T01:16:38;6.47;;;2.60;;
69854;SDS011;57146;48.140;16.304;2023-09-07T01:19:05;5.53;;;2.30;;
69854;SDS011;57146;48.140;16.304;2023-09-07T01:21:34;5.32;;;2.10;;
69854;SDS011;57146;48.140;16.304;2023-09-07T01:24:06;5.95;;;2.40;;
69854;SDS011;57146;48.140;16.304;2023-09-07T01:26:35;7.15;;;2.50;;
69854;SDS011;57146;48.140;16.304;2023-09-07T01:29:04;5.88;;;2.80;;
69854;SDS011;57146;48.140;16.304;2023-09-07T01:31:36;8.83;;;2.93;;
69854;SDS011;57146;48.140;16.304;2023-09-07T01:34:05;6.40;;;2.60;;
69854;SDS011;57146;48.140;16.304;2023-09-07T01:36:32;6.28;;;2.53;;
69854;SDS011;57146;48.140;16.304;2023-09-07T01:39:01;5.63;;;2.40;;
69854;SDS011;57146;48.140;16.304;2023-09-07T01:41:30;6.00;;;2.60;;
69854;SDS011;57146;48.140;16.304;2023-09-07T01:43:57;6.07;;;2.50;;
69854;SDS011;57146;48.140;16.304;2023-09-07T01:46:24;5.88;;;2.38;;
69854;SDS011;57146;48.140;16.304;2023-09-07T01:48:52;7.28;;;3.03;;
69854;SDS011;57146;48.140;16.304;2023-09-07T01:51:19;5.95;;;2.42;;
69854;SDS011;57146;48.140;16.304;2023-09-07T01:53:49;5.53;;;2.50;;
69854;SDS011;57146;48.140;16.304;2023-09-07T01:56:16;6.07;;;2.67;;
69854;SDS011;57146;48.140;16.304;2023-09-07T01:58:43;6.40;;;2.55;;
69854;SDS011;57146;48.140;16.304;2023-09-07T02:01:21;6.45;;;2.85;;
69854;SDS011;57146;48.140;16.304;2023-09-07T02:03:54;6.20;;;2.50;;
69854;SDS011;57146;48.140;16.304;2023-09-07T02:06:20;7.47;;;2.90;;
69854;SDS011;57146;48.140;16.304;2023-09-07T02:08:48;5.50;;;2.60;;
69854;SDS011;57146;48.140;16.304;2023-09-07T02:11:16;6.85;;;2.83;;
69854;SDS011;57146;48.140;16.304;2023-09-07T02:13:43;5.90;;;2.60;;
69854;SDS011;57146;48.140;16.304;2023-09-07T02:16:15;5.97;;;2.55;;
69854;SDS011;57146;48.140;16.304;2023-09-07T02:18:42;6.47;;;2.70;;
69854;SDS011;57146;48.140;16.304;2023-09-07T02:21:10;6.60;;;2.80;;
69854;SDS011;57146;48.140;16.304;2023-09-07T02:23:42;7.03;;;2.78;;
69854;SDS011;57146;48.140;16.304;2023-09-07T02:26:09;7.38;;;2.90;;
69854;SDS011;57146;48.140;16.304;2023-09-07T02:28:36;6.40;;;2.80;;
69854;SDS011;57146;48.140;16.304;2023-09-07T02:31:04;6.63;;;2.80;;
69854;SDS011;57146;48.140;16.304;2023-09-07T02:33:32;6.97;;;2.87;;
69854;SDS011;57146;48.140;16.304;2023-09-07T02:35:59;7.15;;;3.05;;
69854;SDS011;57146;48.140;16.304;2023-09-07T02:38:27;7.63;;;3.08;;
69854;SDS011;57146;48.140;16.304;2023-09-07T02:40:55;7.95;;;3.40;;
69854;SDS011;57146;48.140;16.304;2023-09-07T02:43:23;6.75;;;3.10;;
69854;SDS011;57146;48.140;16.304;2023-09-07T02:45:51;6.17;;;3.07;;
69854;SDS011;57146;48.140;16.304;2023-09-07T02:48:21;6.57;;;3.22;;
69854;SDS011;57146;48.140;16.304;2023-09-07T02:50:48;7.22;;;3.05;;
69854;SDS011;57146;48.140;16.304;2023-09-07T02:53:16;6.95;;;3.30;;
69854;SDS011;57146;48.140;16.304;2023-09-07T02:55:44;10.10;;;3.20;;
69854;SDS011;57146;48.140;16.304;2023-09-07T02:58:12;7.90;;;3.37;;
69854;SDS011;57146;48.140;16.304;2023-09-07T03:00:44;7.63;;;3.35;;
69854;SDS011;57146;48.140;16.304;2023-09-07T03:03:13;8.82;;;3.10;;
69854;SDS011;57146;48.140;16.304;2023-09-07T03:05:43;7.15;;;3.20;;
69854;SDS011;57146;48.140;16.304;2023-09-07T03:08:10;8.05;;;3.70;;
69854;SDS011;57146;48.140;16.304;2023-09-07T03:10:38;9.57;;;3.47;;
69854;SDS011;57146;48.140;16.304;2023-09-07T03:13:06;7.65;;;3.30;;
69854;SDS011;57146;48.140;16.304;2023-09-07T03:15:34;7.13;;;3.10;;
69854;SDS011;57146;48.140;16.304;2023-09-07T03:18:04;8.27;;;3.53;;
69854;SDS011;57146;48.140;16.304;2023-09-07T03:20:33;8.48;;;3.47;;
69854;SDS011;57146;48.140;16.304;2023-09-07T03:23:03;9.63;;;3.40;;
69854;SDS011;57146;48.140;16.304;2023-09-07T03:25:35;7.50;;;3.58;;
69854;SDS011;57146;48.140;16.304;2023-09-07T03:28:02;9.10;;;3.55;;
69854;SDS011;57146;48.140;16.304;2023-09-07T03:30:31;6.88;;;3.45;;
69854;SDS011;57146;48.140;16.304;2023-09-07T03:32:58;7.72;;;3.60;;
69854;SDS011;57146;48.140;16.304;2023-09-07T03:35:24;8.73;;;4.07;;
69854;SDS011;57146;48.140;16.304;2023-09-07T03:37:51;7.65;;;3.20;;
69854;SDS011;57146;48.140;16.304;2023-09-07T03:40:19;7.45;;;3.65;;
69854;SDS011;57146;48.140;16.304;2023-09-07T03:42:46;8.57;;;3.75;;
69854;SDS011;57146;48.140;16.304;2023-09-07T03:45:13;8.68;;;3.95;;
69854;SDS011;57146;48.140;16.304;2023-09-07T03:47:41;9.00;;;4.03;;
69854;SDS011;57146;48.140;16.304;2023-09-07T03:50:12;8.80;;;3.50;;
69854;SDS011;57146;48.140;16.304;2023-09-07T03:52:40;8.50;;;3.60;;
69854;SDS011;57146;48.140;16.304;2023-09-07T03:55:07;7.88;;;3.70;;
69854;SDS011;57146;48.140;16.304;2023-09-07T03:57:36;8.77;;;3.38;;
69854;SDS011;57146;48.140;16.304;2023-09-07T04:00:03;7.80;;;3.60;;
69854;SDS011;57146;48.140;16.304;2023-09-07T04:02:38;8.90;;;3.92;;
69854;SDS011;57146;48.140;16.304;2023-09-07T04:05:08;8.52;;;3.90;;
69854;SDS011;57146;48.140;16.304;2023-09-07T04:07:37;8.18;;;3.75;;
69854;SDS011;57146;48.140;16.304;2023-09-07T04:10:05;9.90;;;3.70;;
69854;SDS011;57146;48.140;16.304;2023-09-07T04:12:33;7.37;;;3.30;;
69854;SDS011;57146;48.140;16.304;2023-09-07T04:15:01;9.77;;;3.45;;
69854;SDS011;57146;48.140;16.304;2023-09-07T04:17:29;10.40;;;3.83;;
69854;SDS011;57146;48.140;16.304;2023-09-07T04:19:57;8.50;;;3.80;;
69854;SDS011;57146;48.140;16.304;2023-09-07T04:22:26;8.25;;;3.47;;
69854;SDS011;57146;48.140;16.304;2023-09-07T04:24:53;11.30;;;4.17;;
69854;SDS011;57146;48.140;16.304;2023-09-07T04:27:22;10.25;;;4.40;;
69854;SDS011;57146;48.140;16.304;2023-09-07T04:29:49;10.00;;;4.15;;
69854;SDS011;57146;48.140;16.304;2023-09-07T04:32:16;13.05;;;3.70;;
69854;SDS011;57146;48.140;16.304;2023-09-07T04:34:43;9.55;;;3.97;;
69854;SDS011;57146;48.140;16.304;2023-09-07T04:37:10;9.47;;;3.60;;
69854;SDS011;57146;48.140;16.304;2023-09-07T04:39:39;9.77;;;4.10;;
69854;SDS011;57146;48.140;16.304;2023-09-07T04:42:06;9.18;;;4.35;;
69854;SDS011;57146;48.140;16.304;2023-09-07T04:44:33;12.35;;;3.72;;
69854;SDS011;57146;48.140;16.304;2023-09-07T04:47:01;8.93;;;4.22;;
69854;SDS011;57146;48.140;16.304;2023-09-07T04:49:28;12.00;;;4.50;;
69854;SDS011;57146;48.140;16.304;2023-09-07T04:51:55;9.02;;;4.30;;
69854;SDS011;57146;48.140;16.304;2023-09-07T04:54:24;11.65;;;4.10;;
69854;SDS011;57146;48.140;16.304;2023-09-07T04:56:51;9.73;;;4.20;;
69854;SDS011;57146;48.140;16.304;2023-09-07T04:59:18;9.77;;;5.15;;
69854;SDS011;57146;48.140;16.304;2023-09-07T05:01:46;11.17;;;5.33;;
69854;SDS011;57146;48.140;16.304;2023-09-07T05:04:14;11.90;;;5.40;;
69854;SDS011;57146;48.140;16.304;2023-09-07T05:06:41;11.80;;;5.65;;
69854;SDS011;57146;48.140;16.304;2023-09-07T05:09:08;11.95;;;5.72;;
69854;SDS011;57146;48.140;16.304;2023-09-07T05:11:36;12.68;;;5.10;;
69854;SDS011;57146;48.140;16.304;2023-09-07T05:14:03;11.50;;;5.30;;
69854;SDS011;57146;48.140;16.304;2023-09-07T05:16:30;10.07;;;4.38;;
69854;SDS011;57146;48.140;16.304;2023-09-07T05:18:58;11.57;;;4.78;;
69854;SDS011;57146;48.140;16.304;2023-09-07T05:21:25;9.35;;;4.65;;
69854;SDS011;57146;48.140;16.304;2023-09-07T05:23:52;9.63;;;4.65;;
69854;SDS011;57146;48.140;16.304;2023-09-07T05:26:22;9.33;;;4.40;;
69854;SDS011;57146;48.140;16.304;2023-09-07T05:28:50;9.80;;;4.20;;
69854;SDS011;57146;48.140;16.304;2023-09-07T05:31:17;10.05;;;4.50;;
69854;SDS011;57146;48.140;16.304;2023-09-07T05:33:44;9.73;;;4.47;;
69854;SDS011;57146;48.140;16.304;2023-09-07T05:36:12;11.20;;;4.50;;
69854;SDS011;57146;48.140;16.304;2023-09-07T05:38:40;11.33;;;5.10;;
69854;SDS011;57146;48.140;16.304;2023-09-07T05:41:07;10.45;;;4.57;;
69854;SDS011;57146;48.140;16.304;2023-09-07T05:43:34;11.77;;;4.88;;
69854;SDS011;57146;48.140;16.304;2023-09-07T05:46:01;11.82;;;4.50;;
69854;SDS011;57146;48.140;16.304;2023-09-07T05:48:28;10.35;;;4.45;;
69854;SDS011;57146;48.140;16.304;2023-09-07T05:50:56;9.77;;;4.73;;
69854;SDS011;57146;48.140;16.304;2023-09-07T05:53:23;9.57;;;4.32;;
69854;SDS011;57146;48.140;16.304;2023-09-07T05:55:50;13.85;;;4.93;;
69854;SDS011;57146;48.140;16.304;2023-09-07T05:58:18;10.45;;;4.63;;
69854;SDS011;57146;48.140;16.304;2023-09-07T06:00:45;13.13;;;5.20;;
69854;SDS011;57146;48.140;16.304;2023-09-07T06:03:12;17.87;;;4.87;;
69854;SDS011;57146;48.140;16.304;2023-09-07T06:05:40;15.75;;;5.00;;
69854;SDS011;57146;48.140;16.304;2023-09-07T06:08:09;17.88;;;5.13;;
69854;SDS011;57146;48.140;16.304;2023-09-07T06:10:36;15.45;;;5.57;;
69854;SDS011;57146;48.140;16.304;2023-09-07T06:13:05;11.27;;;4.68;;
69854;SDS011;57146;48.140;16.304;2023-09-07T06:15:32;12.43;;;4.77;;
69854;SDS011;57146;48.140;16.304;2023-09-07T06:17:59;14.70;;;5.68;;
69854;SDS011;57146;48.140;16.304;2023-09-07T06:20:26;13.13;;;4.90;;
69854;SDS011;57146;48.140;16.304;2023-09-07T06:22:56;11.25;;;4.47;;
69854;SDS011;57146;48.140;16.304;2023-09-07T06:25:24;19.70;;;5.60;;
69854;SDS011;57146;48.140;16.304;2023-09-07T06:27:54;11.13;;;4.60;;
69854;SDS011;57146;48.140;16.304;2023-09-07T06:30:21;11.23;;;4.40;;
69854;SDS011;57146;48.140;16.304;2023-09-07T06:32:48;8.27;;;3.90;;
69854;SDS011;57146;48.140;16.304;2023-09-07T06:35:16;10.02;;;4.75;;
69854;SDS011;57146;48.140;16.304;2023-09-07T06:37:44;10.18;;;3.47;;
69854;SDS011;57146;48.140;16.304;2023-09-07T06:40:13;8.37;;;3.67;;
69854;SDS011;57146;48.140;16.304;2023-09-07T06:42:41;6.70;;;3.30;;
69854;SDS011;57146;48.140;16.304;2023-09-07T06:45:13;8.75;;;3.33;;
69854;SDS011;57146;48.140;16.304;2023-09-07T06:47:40;8.02;;;3.13;;
69854;SDS011;57146;48.140;16.304;2023-09-07T06:50:09;9.77;;;3.45;;
69854;SDS011;57146;48.140;16.304;2023-09-07T06:52:37;7.40;;;2.90;;
69854;SDS011;57146;48.140;16.304;2023-09-07T06:55:04;8.65;;;3.05;;
69854;SDS011;57146;48.140;16.304;2023-09-07T06:57:32;8.02;;;2.83;;
69854;SDS011;57146;48.140;16.304;2023-09-07T07:00:00;7.32;;;3.30;;
69854;SDS011;57146;48.140;16.304;2023-09-07T07:02:28;9.48;;;3.40;;
69854;SDS011;57146;48.140;16.304;2023-09-07T07:04:58;9.13;;;3.23;;
69854;SDS011;57146;48.140;16.304;2023-09-07T07:07:26;7.88;;;2.50;;
69854;SDS011;57146;48.140;16.304;2023-09-07T07:09:53;6.47;;;2.75;;
69854;SDS011;57146;48.140;16.304;2023-09-07T07:12:20;7.00;;;3.00;;
69854;SDS011;57146;48.140;16.304;2023-09-07T07:14:47;6.63;;;2.60;;
69854;SDS011;57146;48.140;16.304;2023-09-07T07:17:15;7.27;;;3.10;;
69854;SDS011;57146;48.140;16.304;2023-09-07T07:19:42;8.52;;;3.40;;
69854;SDS011;57146;48.140;16.304;2023-09-07T07:22:09;10.02;;;3.30;;
69854;SDS011;57146;48.140;16.304;2023-09-07T07:24:37;10.98;;;3.40;;
69854;SDS011;57146;48.140;16.304;2023-09-07T07:27:04;7.80;;;2.80;;
69854;SDS011;57146;48.140;16.304;2023-09-07T07:29:33;9.30;;;2.80;;
69854;SDS011;57146;48.140;16.304;2023-09-07T07:32:01;7.32;;;3.35;;
69854;SDS011;57146;48.140;16.304;2023-09-07T07:34:28;7.15;;;3.03;;
69854;SDS011;57146;48.140;16.304;2023-09-07T07:36:56;11.02;;;3.33;;
69854;SDS011;57146;48.140;16.304;2023-09-07T07:39:24;8.43;;;3.20;;
69854;SDS011;57146;48.140;16.304;2023-09-07T07:41:51;6.57;;;2.50;;
69854;SDS011;57146;48.140;16.304;2023-09-07T07:44:19;8.35;;;2.90;;
69854;SDS011;57146;48.140;16.304;2023-09-07T07:46:46;5.55;;;2.90;;
69854;SDS011;57146;48.140;16.304;2023-09-07T07:49:15;6.70;;;2.70;;
69854;SDS011;57146;48.140;16.304;2023-09-07T07:51:42;7.35;;;2.60;;
69854;SDS011;57146;48.140;16.304;2023-09-07T07:54:09;5.50;;;2.27;;
69854;SDS011;57146;48.140;16.304;2023-09-07T07:56:38;5.95;;;2.47;;
69854;SDS011;57146;48.140;16.304;2023-09-07T07:59:06;6.85;;;3.00;;
69854;SDS011;57146;48.140;16.304;2023-09-07T08:01:34;5.97;;;2.53;;
69854;SDS011;57146;48.140;16.304;2023-09-07T08:04:02;7.63;;;2.75;;
69854;SDS011;57146;48.140;16.304;2023-09-07T08:06:31;5.97;;;2.80;;
69854;SDS011;57146;48.140;16.304;2023-09-07T08:08:58;5.88;;;2.63;;
69854;SDS011;57146;48.140;16.304;2023-09-07T08:11:25;5.63;;;2.38;;
69854;SDS011;57146;48.140;16.304;2023-09-07T08:13:53;5.63;;;2.42;;
69854;SDS011;57146;48.140;16.304;2023-09-07T08:16:20;7.22;;;2.78;;
69854;SDS011;57146;48.140;16.304;2023-09-07T08:18:48;6.90;;;3.03;;
69854;SDS011;57146;48.140;16.304;2023-09-07T08:21:16;5.60;;;2.50;;
69854;SDS011;57146;48.140;16.304;2023-09-07T08:23:43;7.15;;;2.38;;
69854;SDS011;57146;48.140;16.304;2023-09-07T08:26:12;6.93;;;2.55;;
69854;SDS011;57146;48.140;16.304;2023-09-07T08:28:40;9.35;;;3.00;;
69854;SDS011;57146;48.140;16.304;2023-09-07T08:31:07;7.77;;;2.53;;
69854;SDS011;57146;48.140;16.304;2023-09-07T08:33:36;8.40;;;2.80;;
69854;SDS011;57146;48.140;16.304;2023-09-07T08:36:03;6.80;;;2.92;;
69854;SDS011;57146;48.140;16.304;2023-09-07T08:38:31;6.40;;;2.42;;
69854;SDS011;57146;48.140;16.304;2023-09-07T08:41:00;7.15;;;2.55;;
69854;SDS011;57146;48.140;16.304;2023-09-07T08:43:30;4.93;;;2.07;;
69854;SDS011;57146;48.140;16.304;2023-09-07T08:46:11;4.70;;;2.30;;
69854;SDS011;57146;48.140;16.304;2023-09-07T08:48:44;5.43;;;2.60;;
69854;SDS011;57146;48.140;16.304;2023-09-07T08:51:12;5.85;;;2.20;;
69854;SDS011;57146;48.140;16.304;2023-09-07T08:53:42;7.03;;;2.53;;
69854;SDS011;57146;48.140;16.304;2023-09-07T08:56:09;9.10;;;2.50;;
69854;SDS011;57146;48.140;16.304;2023-09-07T08:58:37;5.47;;;2.30;;
69854;SDS011;57146;48.140;16.304;2023-09-07T09:01:04;8.23;;;2.60;;
69854;SDS011;57146;48.140;16.304;2023-09-07T09:03:34;9.82;;;2.33;;
69854;SDS011;57146;48.140;16.304;2023-09-07T09:06:03;7.47;;;2.58;;
69854;SDS011;57146;48.140;16.304;2023-09-07T09:11:15;6.50;;;2.25;;
69854;SDS011;57146;48.140;16.304;2023-09-07T09:13:43;7.47;;;2.50;;
69854;SDS011;57146;48.140;16.304;2023-09-07T09:16:35;4.30;;;2.00;;
69854;SDS011;57146;48.140;16.304;2023-09-07T09:19:02;4.72;;;2.10;;
69854;SDS011;57146;48.140;16.304;2023-09-07T09:21:30;5.87;;;2.20;;
69854;SDS011;57146;48.140;16.304;2023-09-07T09:23:58;4.22;;;2.17;;
69854;SDS011;57146;48.140;16.304;2023-09-07T09:26:25;7.53;;;2.40;;
69854;SDS011;57146;48.140;16.304;2023-09-07T09:28:55;4.03;;;1.83;;
69854;SDS011;57146;48.140;16.304;2023-09-07T09:31:23;4.30;;;2.15;;
69854;SDS011;57146;48.140;16.304;2023-09-07T09:33:52;3.93;;;2.00;;
69854;SDS011;57146;48.140;16.304;2023-09-07T09:36:19;6.07;;;1.90;;
69854;SDS011;57146;48.140;16.304;2023-09-07T09:38:50;4.53;;;1.80;;
69854;SDS011;57146;48.140;16.304;2023-09-07T09:41:19;4.47;;;2.15;;
69854;SDS011;57146;48.140;16.304;2023-09-07T09:43:46;3.95;;;1.80;;
69854;SDS011;57146;48.140;16.304;2023-09-07T09:46:14;4.70;;;1.80;;
69854;SDS011;57146;48.140;16.304;2023-09-07T09:48:41;3.88;;;1.70;;
69854;SDS011;57146;48.140;16.304;2023-09-07T09:51:10;5.65;;;1.90;;
69854;SDS011;57146;48.140;16.304;2023-09-07T09:53:37;8.32;;;1.83;;
69854;SDS011;57146;48.140;16.304;2023-09-07T09:56:05;7.70;;;2.45;;
69854;SDS011;57146;48.140;16.304;2023-09-07T09:58:32;4.50;;;1.70;;
69854;SDS011;57146;48.140;16.304;2023-09-07T10:01:00;3.88;;;1.80;;
69854;SDS011;57146;48.140;16.304;2023-09-07T10:03:29;5.53;;;1.70;;
69854;SDS011;57146;48.140;16.304;2023-09-07T10:06:18;3.95;;;1.70;;
69854;SDS011;57146;48.140;16.304;2023-09-07T10:08:59;4.15;;;1.88;;
69854;SDS011;57146;48.140;16.304;2023-09-07T10:11:33;5.07;;;1.67;;
69854;SDS011;57146;48.140;16.304;2023-09-07T10:14:02;4.22;;;1.83;;
69854;SDS011;57146;48.140;16.304;2023-09-07T10:16:43;7.75;;;2.30;;
69854;SDS011;57146;48.140;16.304;2023-09-07T10:19:17;7.68;;;1.70;;
69854;SDS011;57146;48.140;16.304;2023-09-07T10:21:44;4.10;;;1.70;;
69854;SDS011;57146;48.140;16.304;2023-09-07T10:24:12;3.90;;;1.60;;
69854;SDS011;57146;48.140;16.304;2023-09-07T10:27:00;6.75;;;1.70;;
69854;SDS011;57146;48.140;16.304;2023-09-07T10:32:13;3.75;;;1.40;;
69854;SDS011;57146;48.140;16.304;2023-09-07T10:34:43;3.70;;;1.40;;
69854;SDS011;57146;48.140;16.304;2023-09-07T10:37:13;5.93;;;1.33;;
69854;SDS011;57146;48.140;16.304;2023-09-07T10:39:40;4.45;;;1.45;;
69854;SDS011;57146;48.140;16.304;2023-09-07T10:42:25;6.10;;;1.30;;
69854;SDS011;57146;48.140;16.304;2023-09-07T10:44:53;7.30;;;1.65;;
69854;SDS011;57146;48.140;16.304;2023-09-07T10:47:20;22.45;;;3.15;;
69854;SDS011;57146;48.140;16.304;2023-09-07T10:49:48;7.50;;;1.30;;
69854;SDS011;57146;48.140;16.304;2023-09-07T10:52:15;4.57;;;1.33;;
69854;SDS011;57146;48.140;16.304;2023-09-07T10:54:42;4.93;;;1.08;;
69854;SDS011;57146;48.140;16.304;2023-09-07T10:57:09;3.92;;;1.35;;
69854;SDS011;57146;48.140;16.304;2023-09-07T10:59:37;2.97;;;1.10;;
69854;SDS011;57146;48.140;16.304;2023-09-07T11:02:04;4.17;;;1.47;;
69854;SDS011;57146;48.140;16.304;2023-09-07T11:04:32;5.22;;;1.42;;
69854;SDS011;57146;48.140;16.304;2023-09-07T11:07:00;6.25;;;1.42;;
69854;SDS011;57146;48.140;16.304;2023-09-07T11:09:29;4.63;;;1.40;;
69854;SDS011;57146;48.140;16.304;2023-09-07T11:11:57;4.00;;;1.30;;
69854;SDS011;57146;48.140;16.304;2023-09-07T11:14:30;5.13;;;1.40;;
69854;SDS011;57146;48.140;16.304;2023-09-07T11:16:57;8.93;;;1.10;;
69854;SDS011;57146;48.140;16.304;2023-09-07T11:19:24;5.43;;;1.60;;
69854;SDS011;57146;48.140;16.304;2023-09-07T11:21:54;4.53;;;1.30;;
69854;SDS011;57146;48.140;16.304;2023-09-07T11:24:21;5.28;;;1.30;;
69854;SDS011;57146;48.140;16.304;2023-09-07T11:26:49;3.60;;;1.30;;
69854;SDS011;57146;48.140;16.304;2023-09-07T11:29:16;10.02;;;2.22;;
69854;SDS011;57146;48.140;16.304;2023-09-07T11:31:44;6.70;;;1.58;;
69854;SDS011;57146;48.140;16.304;2023-09-07T11:34:14;5.18;;;1.33;;
69854;SDS011;57146;48.140;16.304;2023-09-07T11:36:42;3.67;;;1.27;;
69854;SDS011;57146;48.140;16.304;2023-09-07T11:39:10;6.13;;;1.80;;
69854;SDS011;57146;48.140;16.304;2023-09-07T11:41:40;4.68;;;1.60;;
69854;SDS011;57146;48.140;16.304;2023-09-07T11:44:08;6.85;;;1.58;;
69854;SDS011;57146;48.140;16.304;2023-09-07T11:46:35;3.95;;;1.67;;
69854;SDS011;57146;48.140;16.304;2023-09-07T11:49:03;8.32;;;3.97;;
69854;SDS011;57146;48.140;16.304;2023-09-07T11:51:31;4.27;;;1.57;;
69854;SDS011;57146;48.140;16.304;2023-09-07T11:54:01;4.10;;;1.10;;
69854;SDS011;57146;48.140;16.304;2023-09-07T11:56:29;5.25;;;1.33;;
69854;SDS011;57146;48.140;16.304;2023-09-07T11:58:56;3.72;;;1.20;;
69854;SDS011;57146;48.140;16.304;2023-09-07T12:01:24;5.15;;;1.48;;
69854;SDS011;57146;48.140;16.304;2023-09-07T12:03:51;5.93;;;1.60;;
69854;SDS011;57146;48.140;16.304;2023-09-07T12:06:19;6.78;;;1.40;;
69854;SDS011;57146;48.140;16.304;2023-09-07T12:09:02;6.60;;;1.73;;
69854;SDS011;57146;48.140;16.304;2023-09-07T12:11:31;6.50;;;1.60;;
69854;SDS011;57146;48.140;16.304;2023-09-07T12:13:58;3.60;;;1.25;;
69854;SDS011;57146;48.140;16.304;2023-09-07T12:16:26;3.53;;;1.50;;
69854;SDS011;57146;48.140;16.304;2023-09-07T12:18:58;7.72;;;1.55;;
69854;SDS011;57146;48.140;16.304;2023-09-07T12:21:25;6.28;;;1.65;;
69854;SDS011;57146;48.140;16.304;2023-09-07T12:23:52;12.20;;;1.95;;
69854;SDS011;57146;48.140;16.304;2023-09-07T12:26:19;4.32;;;1.55;;
69854;SDS011;57146;48.140;16.304;2023-09-07T12:28:47;4.17;;;1.40;;
69854;SDS011;57146;48.140;16.304;2023-09-07T12:31:13;4.47;;;1.58;;
69854;SDS011;57146;48.140;16.304;2023-09-07T12:33:40;7.60;;;1.92;;
69854;SDS011;57146;48.140;16.304;2023-09-07T12:36:07;5.43;;;1.85;;
69854;SDS011;57146;48.140;16.304;2023-09-07T12:38:34;4.40;;;1.50;;
69854;SDS011;57146;48.140;16.304;2023-09-07T12:41:02;3.57;;;1.50;;
69854;SDS011;57146;48.140;16.304;2023-09-07T12:43:28;3.88;;;1.50;;
69854;SDS011;57146;48.140;16.304;2023-09-07T12:45:56;3.38;;;1.58;;
69854;SDS011;57146;48.140;16.304;2023-09-07T12:48:23;4.85;;;1.80;;
69854;SDS011;57146;48.140;16.304;2023-09-07T12:50:50;5.35;;;1.90;;
69854;SDS011;57146;48.140;16.304;2023-09-07T12:53:17;3.60;;;1.17;;
69854;SDS011;57146;48.140;16.304;2023-09-07T12:55:44;4.05;;;1.52;;
69854;SDS011;57146;48.140;16.304;2023-09-07T12:58:11;4.88;;;1.60;;
69854;SDS011;57146;48.140;16.304;2023-09-07T13:00:38;4.97;;;1.63;;
69854;SDS011;57146;48.140;16.304;2023-09-07T13:03:05;3.38;;;1.48;;
69854;SDS011;57146;48.140;16.304;2023-09-07T13:05:32;3.80;;;1.67;;
69854;SDS011;57146;48.140;16.304;2023-09-07T13:08:00;6.55;;;1.75;;
69854;SDS011;57146;48.140;16.304;2023-09-07T13:10:27;3.75;;;1.60;;
69854;SDS011;57146;48.140;16.304;2023-09-07T13:12:54;3.15;;;1.55;;
69854;SDS011;57146;48.140;16.304;2023-09-07T13:15:20;5.22;;;1.73;;
69854;SDS011;57146;48.140;16.304;2023-09-07T13:17:47;4.47;;;1.83;;
69854;SDS011;57146;48.140;16.304;2023-09-07T13:20:14;8.40;;;1.77;;
69854;SDS011;57146;48.140;16.304;2023-09-07T13:22:41;5.68;;;1.90;;
69854;SDS011;57146;48.140;16.304;2023-09-07T13:25:09;5.22;;;1.75;;
69854;SDS011;57146;48.140;16.304;2023-09-07T13:27:36;6.47;;;1.70;;
69854;SDS011;57146;48.140;16.304;2023-09-07T13:30:04;2.90;;;1.40;;
69854;SDS011;57146;48.140;16.304;2023-09-07T13:32:32;5.70;;;1.70;;
69854;SDS011;57146;48.140;16.304;2023-09-07T13:34:59;3.83;;;1.60;;
69854;SDS011;57146;48.140;16.304;2023-09-07T13:37:26;3.97;;;1.60;;
69854;SDS011;57146;48.140;16.304;2023-09-07T13:39:53;5.35;;;1.83;;
69854;SDS011;57146;48.140;16.304;2023-09-07T13:42:20;7.67;;;1.50;;
69854;SDS011;57146;48.140;16.304;2023-09-07T13:44:48;3.65;;;1.52;;
69854;SDS011;57146;48.140;16.304;2023-09-07T13:47:15;3.63;;;1.40;;
69854;SDS011;57146;48.140;16.304;2023-09-07T13:49:42;4.45;;;1.60;;
69854;SDS011;57146;48.140;16.304;2023-09-07T13:52:09;3.75;;;1.60;;
69854;SDS011;57146;48.140;16.304;2023-09-07T13:54:36;3.00;;;1.37;;
69854;SDS011;57146;48.140;16.304;2023-09-07T13:57:03;6.90;;;1.90;;
69854;SDS011;57146;48.140;16.304;2023-09-07T13:59:33;3.47;;;1.60;;
69854;SDS011;57146;48.140;16.304;2023-09-07T14:02:00;4.63;;;1.40;;
69854;SDS011;57146;48.140;16.304;2023-09-07T14:04:27;4.20;;;1.75;;
69854;SDS011;57146;48.140;16.304;2023-09-07T14:06:54;4.00;;;1.60;;
69854;SDS011;57146;48.140;16.304;2023-09-07T14:09:21;4.20;;;1.48;;
69854;SDS011;57146;48.140;16.304;2023-09-07T14:11:48;5.25;;;1.50;;
69854;SDS011;57146;48.140;16.304;2023-09-07T14:14:15;6.07;;;2.05;;
69854;SDS011;57146;48.140;16.304;2023-09-07T14:16:43;7.10;;;2.00;;
69854;SDS011;57146;48.140;16.304;2023-09-07T14:19:10;3.67;;;1.43;;
69854;SDS011;57146;48.140;16.304;2023-09-07T14:21:37;5.53;;;1.73;;
69854;SDS011;57146;48.140;16.304;2023-09-07T14:24:04;4.05;;;1.23;;
69854;SDS011;57146;48.140;16.304;2023-09-07T14:26:31;5.20;;;1.42;;
69854;SDS011;57146;48.140;16.304;2023-09-07T14:28:58;3.60;;;1.60;;
69854;SDS011;57146;48.140;16.304;2023-09-07T14:31:25;3.63;;;1.10;;
69854;SDS011;57146;48.140;16.304;2023-09-07T14:33:52;6.38;;;1.80;;
69854;SDS011;57146;48.140;16.304;2023-09-07T14:36:19;4.72;;;1.50;;
69854;SDS011;57146;48.140;16.304;2023-09-07T14:38:46;3.80;;;1.20;;
69854;SDS011;57146;48.140;16.304;2023-09-07T14:41:13;4.80;;;1.35;;
69854;SDS011;57146;48.140;16.304;2023-09-07T14:43:40;12.97;;;2.33;;